Time;durP1;ratioP1;P1;durP2;ratioP2;P2;SDS_P1;SDS_P2;PMS_P1;PMS_P2;Temp;Humidity;BMP_temperature;BMP_pressure;BME280_temperature;BME280_humidity;BME280_pressure;Samples;Min_cycle;Max_cycle;Signal;HPM_P1;HPM_P2
2023/09/02 00:00:37;;;;;;;19.70;16.15;;;13.50;99.90;;;;;;4987341;28;20042;-70
2023/09/02 00:03:02;;;;;;;20.30;17.95;;;13.40;99.90;;;;;;4969293;28;20053;-70
2023/09/02 00:05:28;;;;;;;24.58;20.40;;;13.50;99.90;;;;;;4987720;28;20038;-70
2023/09/02 00:07:54;;;;;;;20.50;18.30;;;13.50;99.90;;;;;;4985361;28;20455;-70
2023/09/02 00:10:19;;;;;;;25.42;18.13;;;13.50;99.90;;;;;;4989080;28;20038;-70
2023/09/02 00:12:45;;;;;;;22.50;18.45;;;13.50;99.90;;;;;;5006832;28;20042;-70
2023/09/02 00:15:12;;;;;;;24.58;17.80;;;13.50;99.90;;;;;;5021082;28;20507;-70
2023/09/02 00:17:38;;;;;;;28.83;21.63;;;13.50;99.90;;;;;;5022156;28;20042;-70
2023/09/02 00:20:13;;;;;;;21.38;18.98;;;13.50;99.90;;;;;;4989674;28;20454;-69
2023/09/02 00:22:40;;;;;;;26.27;22.38;;;13.40;99.90;;;;;;5014453;28;20119;-70
2023/09/02 00:25:06;;;;;;;28.85;21.63;;;13.40;99.90;;;;;;4990188;28;20072;-69
2023/09/02 00:27:32;;;;;;;27.85;21.73;;;13.40;99.90;;;;;;5045356;28;20069;-70
2023/09/02 00:30:00;;;;;;;28.95;22.40;;;13.30;99.90;;;;;;5035577;28;20038;-69
2023/09/02 00:32:28;;;;;;;27.42;23.95;;;13.30;99.90;;;;;;4986759;28;20041;-70
2023/09/02 00:34:54;;;;;;;26.08;22.52;;;13.30;99.90;;;;;;4992405;28;20496;-69
2023/09/02 00:37:20;;;;;;;27.17;22.77;;;13.30;99.90;;;;;;5004644;28;20177;-69
2023/09/02 00:39:46;;;;;;;26.52;22.45;;;13.30;99.90;;;;;;4964535;28;20072;-70
2023/09/02 00:42:14;;;;;;;24.67;21.40;;;13.30;99.90;;;;;;5005285;28;20116;-70
2023/09/02 00:44:40;;;;;;;24.85;21.17;;;13.30;99.90;;;;;;4997068;28;20637;-70
2023/09/02 00:47:07;;;;;;;22.35;19.58;;;13.30;99.90;;;;;;4988467;28;20038;-70
2023/09/02 00:49:33;;;;;;;20.20;17.70;;;13.20;99.90;;;;;;5025408;28;20195;-70
2023/09/02 00:51:58;;;;;;;14.27;12.77;;;13.20;99.90;;;;;;5006235;28;20582;-70
2023/09/02 00:54:24;;;;;;;13.00;11.57;;;13.20;99.90;;;;;;4999834;28;20100;-70
2023/09/02 00:56:50;;;;;;;12.55;11.13;;;13.10;99.90;;;;;;5020747;28;20037;-70
2023/09/02 00:59:16;;;;;;;16.00;12.68;;;13.10;99.90;;;;;;4965602;28;20038;-70
2023/09/02 01:01:45;;;;;;;16.60;13.48;;;13.00;99.90;;;;;;4973180;28;20424;-70
2023/09/02 01:04:11;;;;;;;17.33;15.57;;;13.00;99.90;;;;;;4991069;28;20165;-70
2023/09/02 01:06:38;;;;;;;21.10;17.13;;;13.00;99.90;;;;;;5007544;28;20519;-70
2023/09/02 01:09:04;;;;;;;20.65;18.45;;;13.00;99.90;;;;;;4975360;28;20391;-74
2023/09/02 01:11:34;;;;;;;20.63;17.60;;;13.00;99.90;;;;;;4991242;28;20049;-74
2023/09/02 01:14:02;;;;;;;20.90;17.92;;;13.00;99.90;;;;;;4999681;28;20042;-73
2023/09/02 01:16:29;;;;;;;20.75;16.73;;;13.00;99.90;;;;;;4991539;28;20049;-74
2023/09/02 01:18:55;;;;;;;25.48;19.55;;;13.10;99.90;;;;;;5000314;28;20529;-74
2023/09/02 01:21:58;;;;;;;23.50;20.40;;;13.10;99.90;;;;;;4992754;28;20042;-74
2023/09/02 01:24:52;;;;;;;21.95;19.70;;;13.10;99.90;;;;;;5012974;28;20041;-74
2023/09/02 01:27:27;;;;;;;24.17;20.88;;;13.10;99.90;;;;;;4998464;28;20061;-74
2023/09/02 01:30:19;;;;;;;25.67;21.10;;;13.10;99.90;;;;;;5001872;28;20081;-74
2023/09/02 01:32:50;;;;;;;23.45;20.13;;;13.10;99.90;;;;;;4998981;28;20156;-74
2023/09/02 01:35:27;;;;;;;21.77;18.58;;;13.10;99.90;;;;;;5003763;28;20514;-74
2023/09/02 01:37:55;;;;;;;21.42;19.13;;;13.20;99.90;;;;;;5000835;28;20491;-74
2023/09/02 01:40:26;;;;;;;21.70;19.42;;;13.20;99.90;;;;;;4998935;28;20531;-73
2023/09/02 01:42:56;;;;;;;24.60;21.10;;;13.20;99.90;;;;;;5000255;28;20051;-74
2023/09/02 01:45:25;;;;;;;27.80;22.27;;;13.20;99.90;;;;;;4994478;28;20577;-74
2023/09/02 01:47:52;;;;;;;26.00;22.35;;;13.20;99.90;;;;;;4974083;28;20040;-74
2023/09/02 01:50:22;;;;;;;22.60;20.25;;;13.20;99.90;;;;;;5012684;28;20132;-74
2023/09/02 01:52:48;;;;;;;23.20;20.20;;;13.20;99.90;;;;;;5044357;28;20108;-74
2023/09/02 01:55:16;;;;;;;25.38;22.27;;;13.30;99.90;;;;;;4984409;28;20069;-74
2023/09/02 01:57:42;;;;;;;25.58;22.83;;;13.30;99.90;;;;;;5033064;28;20073;-75
2023/09/02 02:00:11;;;;;;;21.83;19.73;;;13.30;99.90;;;;;;4986810;28;20038;-74
2023/09/02 02:02:38;;;;;;;22.85;20.38;;;13.30;99.90;;;;;;4998021;28;20061;-74
2023/09/02 02:05:06;;;;;;;29.33;22.25;;;13.30;99.90;;;;;;4990995;28;20066;-73
2023/09/02 02:07:35;;;;;;;24.27;21.77;;;13.30;99.90;;;;;;5012444;28;20120;-74
2023/09/02 02:10:04;;;;;;;21.60;19.25;;;13.30;99.90;;;;;;4999441;28;20038;-74
2023/09/02 02:12:31;;;;;;;25.95;21.17;;;13.30;99.90;;;;;;4979595;28;20049;-74
2023/09/02 02:14:57;;;;;;;22.83;20.48;;;13.30;99.90;;;;;;4988759;28;20207;-73
2023/09/02 02:17:23;;;;;;;22.33;20.08;;;13.20;99.90;;;;;;5002571;28;20456;-74
2023/09/02 02:19:49;;;;;;;22.88;20.50;;;13.20;99.90;;;;;;5000889;28;20053;-74
2023/09/02 02:22:14;;;;;;;24.60;21.67;;;13.20;99.90;;;;;;4987407;28;20212;-73
2023/09/02 02:24:40;;;;;;;25.02;22.20;;;13.20;99.90;;;;;;4989721;28;20045;-74
2023/09/02 02:27:06;;;;;;;27.10;24.15;;;13.10;99.90;;;;;;4989522;28;20042;-74
2023/09/02 02:29:32;;;;;;;26.70;22.00;;;13.10;99.90;;;;;;4989399;28;20087;-74
2023/09/02 02:31:57;;;;;;;24.17;20.83;;;13.00;99.90;;;;;;4989196;28;20049;-74
2023/09/02 02:34:23;;;;;;;23.67;19.80;;;13.00;99.90;;;;;;4986863;28;20150;-74
2023/09/02 02:36:52;;;;;;;26.55;22.20;;;13.00;99.90;;;;;;4966980;28;20042;-74
2023/09/02 02:39:18;;;;;;;29.02;23.15;;;12.90;99.90;;;;;;4974345;28;22008;-74
2023/09/02 02:41:44;;;;;;;27.38;22.35;;;12.90;99.90;;;;;;4972493;28;20181;-73
2023/09/02 02:44:09;;;;;;;34.10;22.77;;;12.90;99.90;;;;;;4999851;28;20522;-74
2023/09/02 02:46:35;;;;;;;25.48;22.63;;;12.90;99.90;;;;;;5022380;28;20052;-74
2023/09/02 02:49:01;;;;;;;24.73;22.00;;;12.80;99.90;;;;;;5006021;28;20063;-73
2023/09/02 02:51:26;;;;;;;28.30;24.33;;;12.80;99.90;;;;;;5028603;28;20440;-74
2023/09/02 02:53:52;;;;;;;26.23;23.02;;;12.80;99.90;;;;;;4988107;28;20404;-74
2023/09/02 02:56:19;;;;;;;28.77;22.73;;;12.80;99.90;;;;;;4990184;28;20172;-74
2023/09/02 02:58:44;;;;;;;28.17;24.23;;;12.80;99.90;;;;;;5001525;28;20169;-74
2023/09/02 03:01:11;;;;;;;25.00;22.38;;;12.80;99.90;;;;;;4994262;28;20074;-75
2023/09/02 03:03:37;;;;;;;27.27;20.50;;;12.80;99.90;;;;;;5001363;28;20066;-74
2023/09/02 03:06:06;;;;;;;39.95;23.25;;;12.70;99.90;;;;;;4984772;28;20131;-74
2023/09/02 03:08:32;;;;;;;51.00;25.25;;;12.70;99.90;;;;;;5000614;28;20054;-74
2023/09/02 03:11:00;;;;;;;27.58;23.30;;;12.70;99.90;;;;;;5029073;28;20124;-74
2023/09/02 03:13:25;;;;;;;25.40;22.67;;;12.60;99.90;;;;;;5013566;28;20050;-73
2023/09/02 03:15:55;;;;;;;22.60;20.35;;;12.60;99.90;;;;;;4989077;28;20160;-73
2023/09/02 03:18:21;;;;;;;23.77;21.20;;;12.50;99.90;;;;;;5002566;28;20048;-74
2023/09/02 03:20:47;;;;;;;34.50;24.00;;;12.50;99.90;;;;;;4965685;28;20092;-73
2023/09/02 03:23:14;;;;;;;27.73;22.33;;;12.50;99.90;;;;;;4991444;28;20499;-74
2023/09/02 03:25:40;;;;;;;34.28;22.52;;;12.50;99.90;;;;;;5001946;28;20374;-74
2023/09/02 03:28:06;;;;;;;30.48;25.42;;;12.50;99.90;;;;;;5025895;28;20042;-74
2023/09/02 03:30:32;;;;;;;24.08;21.08;;;12.50;99.90;;;;;;4992873;28;20530;-73
2023/09/02 03:32:58;;;;;;;28.63;25.52;;;12.50;99.90;;;;;;5002214;28;20034;-73
2023/09/02 03:35:24;;;;;;;30.27;25.63;;;12.40;99.90;;;;;;4995662;28;20125;-74
2023/09/02 03:37:49;;;;;;;31.77;23.42;;;12.40;99.90;;;;;;5016654;28;20073;-74
2023/09/02 03:40:15;;;;;;;31.10;25.83;;;12.50;99.90;;;;;;4987135;28;20200;-73
2023/09/02 03:42:41;;;;;;;34.28;24.75;;;12.40;99.90;;;;;;5005148;28;20514;-73
2023/09/02 03:45:09;;;;;;;68.32;26.83;;;12.50;99.90;;;;;;5018432;28;20041;-74
2023/09/02 03:47:35;;;;;;;57.05;24.42;;;12.40;99.90;;;;;;5006481;28;20480;-74
2023/09/02 03:50:02;;;;;;;61.40;23.85;;;12.40;99.90;;;;;;5019760;28;20077;-74
2023/09/02 03:52:28;;;;;;;33.70;23.63;;;12.40;99.90;;;;;;4998889;28;20037;-74
2023/09/02 03:54:54;;;;;;;27.85;23.75;;;12.50;99.90;;;;;;5004844;28;20523;-74
2023/09/02 03:57:19;;;;;;;24.20;21.70;;;12.40;99.90;;;;;;4993451;28;20124;-74
2023/09/02 03:59:45;;;;;;;23.13;20.80;;;12.40;99.90;;;;;;4990059;28;20042;-74
2023/09/02 04:02:11;;;;;;;24.65;22.13;;;12.40;99.90;;;;;;5019875;28;20037;-74
2023/09/02 04:04:37;;;;;;;25.65;23.08;;;12.40;99.90;;;;;;5004399;28;20614;-75
2023/09/02 04:07:03;;;;;;;24.40;21.98;;;12.40;99.90;;;;;;4987109;28;20041;-74
2023/09/02 04:09:28;;;;;;;23.15;20.90;;;12.40;99.90;;;;;;5029165;28;20484;-74
2023/09/02 04:11:54;;;;;;;29.20;22.30;;;12.40;99.90;;;;;;5026831;28;20042;-74
2023/09/02 04:14:20;;;;;;;24.00;21.67;;;12.50;99.90;;;;;;4966450;28;20038;-74
2023/09/02 04:16:46;;;;;;;26.85;22.42;;;12.50;99.90;;;;;;5001259;28;20073;-74
2023/09/02 04:19:11;;;;;;;25.30;22.70;;;12.50;99.90;;;;;;5033029;28;20562;-74
2023/09/02 04:21:37;;;;;;;25.50;22.92;;;12.60;99.90;;;;;;4995259;28;20037;-74
2023/09/02 04:24:03;;;;;;;29.95;23.45;;;12.60;99.90;;;;;;4999092;28;20030;-74
2023/09/02 04:26:29;;;;;;;28.98;25.48;;;12.60;99.90;;;;;;5007859;28;20100;-74
2023/09/02 04:28:55;;;;;;;25.17;22.55;;;12.60;99.90;;;;;;4976233;28;20037;-74
2023/09/02 04:31:22;;;;;;;26.45;23.65;;;12.60;99.90;;;;;;5008108;28;20480;-74
2023/09/02 04:33:48;;;;;;;29.63;26.00;;;12.70;99.90;;;;;;5007162;28;20100;-74
2023/09/02 04:36:14;;;;;;;25.92;22.15;;;12.70;99.90;;;;;;5013267;28;20049;-74
2023/09/02 04:38:39;;;;;;;26.55;23.58;;;12.70;99.90;;;;;;5022504;28;20415;-73
2023/09/02 04:41:06;;;;;;;23.85;21.40;;;12.70;99.90;;;;;;5024603;28;20038;-74
2023/09/02 04:43:33;;;;;;;25.27;22.80;;;12.70;99.90;;;;;;4997775;28;20042;-74
2023/09/02 04:46:03;;;;;;;24.17;21.65;;;12.80;99.90;;;;;;4998295;28;20046;-74
2023/09/02 04:48:29;;;;;;;27.13;24.13;;;12.80;99.90;;;;;;4996488;28;20038;-73
2023/09/02 04:50:55;;;;;;;26.90;24.10;;;12.90;99.90;;;;;;5033427;28;20042;-74
2023/09/02 04:53:21;;;;;;;26.10;23.40;;;12.90;99.90;;;;;;5002285;28;20081;-74
2023/09/02 04:55:48;;;;;;;26.35;23.50;;;12.90;99.90;;;;;;5001271;28;20057;-74
2023/09/02 04:58:14;;;;;;;30.95;26.55;;;12.90;99.90;;;;;;4996823;28;20074;-74
2023/09/02 05:00:40;;;;;;;28.73;23.77;;;13.00;99.90;;;;;;4990808;28;20077;-73
2023/09/02 05:03:06;;;;;;;27.52;24.30;;;13.00;99.90;;;;;;4999201;28;20039;-74
2023/09/02 05:05:32;;;;;;;26.10;23.27;;;13.00;99.90;;;;;;5005309;28;20093;-73
2023/09/02 05:07:58;;;;;;;26.90;24.05;;;13.10;99.90;;;;;;4994277;28;20060;-74
2023/09/02 05:10:24;;;;;;;34.22;27.60;;;13.10;99.90;;;;;;5000200;28;20085;-74
2023/09/02 05:12:50;;;;;;;29.65;25.10;;;13.10;99.90;;;;;;5006227;28;20038;-73
2023/09/02 05:15:16;;;;;;;30.08;26.55;;;13.10;99.90;;;;;;4988399;28;20124;-74
2023/09/02 05:17:42;;;;;;;32.38;26.27;;;13.20;99.90;;;;;;4999855;28;20042;-73
2023/09/02 05:20:08;;;;;;;31.60;26.55;;;13.20;99.90;;;;;;4996315;28;20049;-74
2023/09/02 05:22:35;;;;;;;30.60;25.20;;;13.20;99.90;;;;;;5021168;28;20096;-74
2023/09/02 05:25:02;;;;;;;35.40;28.88;;;13.20;99.90;;;;;;5002971;28;21181;-74
2023/09/02 05:27:28;;;;;;;39.55;30.48;;;13.30;99.90;;;;;;4994398;28;20066;-74
2023/09/02 05:29:54;;;;;;;36.15;28.95;;;13.30;99.90;;;;;;4966314;28;20129;-74
2023/09/02 05:32:20;;;;;;;37.03;30.77;;;13.30;99.90;;;;;;5002076;28;20144;-74
2023/09/02 05:34:46;;;;;;;35.55;28.42;;;13.40;99.90;;;;;;5001948;28;20056;-74
2023/09/02 05:37:12;;;;;;;46.67;32.45;;;13.40;99.90;;;;;;5000717;28;20048;-74
2023/09/02 05:39:38;;;;;;;40.13;29.88;;;13.40;99.90;;;;;;4999953;28;20042;-74
2023/09/02 05:42:04;;;;;;;37.72;29.33;;;13.50;99.90;;;;;;5000526;28;20046;-74
2023/09/02 05:44:31;;;;;;;33.83;27.98;;;13.50;99.90;;;;;;5034478;28;20497;-74
2023/09/02 05:46:56;;;;;;;42.30;31.38;;;13.50;99.90;;;;;;5002821;28;20113;-74
2023/09/02 05:49:22;;;;;;;40.63;31.83;;;13.60;99.90;;;;;;4992951;28;20161;-74
2023/09/02 05:51:48;;;;;;;44.35;31.02;;;13.60;99.90;;;;;;4991512;28;20509;-74
2023/09/02 05:54:13;;;;;;;38.55;30.83;;;13.70;99.90;;;;;;5033905;28;20045;-74
2023/09/02 05:56:39;;;;;;;45.38;33.17;;;13.70;99.90;;;;;;5018721;28;20069;-73
2023/09/02 05:59:05;;;;;;;43.85;30.77;;;13.70;99.90;;;;;;4991798;28;20038;-73
2023/09/02 06:01:31;;;;;;;41.58;32.22;;;13.80;99.90;;;;;;4987954;28;20034;-73
2023/09/02 06:03:57;;;;;;;40.05;30.85;;;13.80;99.90;;;;;;4998439;28;20034;-74
2023/09/02 06:06:23;;;;;;;34.90;26.38;;;13.90;99.90;;;;;;5000769;28;20065;-73
2023/09/02 06:08:49;;;;;;;31.83;25.45;;;13.90;99.90;;;;;;5011956;28;20073;-73
2023/09/02 06:11:15;;;;;;;29.77;26.42;;;13.90;99.90;;;;;;5002682;28;20119;-74
2023/09/02 06:13:41;;;;;;;30.10;26.55;;;13.90;99.90;;;;;;4991703;28;20458;-74
2023/09/02 06:16:07;;;;;;;31.60;26.63;;;13.90;99.90;;;;;;4999833;28;20084;-74
2023/09/02 06:18:34;;;;;;;28.42;23.80;;;13.90;99.90;;;;;;4987591;28;20046;-74
2023/09/02 06:21:08;;;;;;;29.45;24.83;;;13.90;99.90;;;;;;4997271;28;20100;-74
2023/09/02 06:23:34;;;;;;;32.50;26.38;;;13.90;99.90;;;;;;5029999;28;20041;-74
2023/09/02 06:26:01;;;;;;;32.92;26.02;;;14.00;99.90;;;;;;4991936;28;20450;-75
2023/09/02 06:28:27;;;;;;;33.38;27.33;;;13.90;99.90;;;;;;5023646;28;20034;-74
2023/09/02 06:30:53;;;;;;;32.45;27.15;;;14.00;99.90;;;;;;5006972;28;20060;-74
2023/09/02 06:33:23;;;;;;;32.40;26.50;;;14.00;99.90;;;;;;4974816;28;20049;-74
2023/09/02 06:35:50;;;;;;;33.42;27.48;;;14.00;99.90;;;;;;5000183;28;20116;-74
2023/09/02 06:38:16;;;;;;;33.80;28.15;;;14.10;99.90;;;;;;4993462;28;20088;-74
2023/09/02 06:40:42;;;;;;;30.98;27.65;;;14.10;99.90;;;;;;4991625;28;20069;-74
2023/09/02 06:43:08;;;;;;;35.95;28.65;;;14.20;99.90;;;;;;4999042;28;20058;-73
2023/09/02 06:45:34;;;;;;;31.75;26.52;;;14.20;99.90;;;;;;5034019;28;20038;-74
2023/09/02 06:48:00;;;;;;;34.35;26.67;;;14.20;99.90;;;;;;5001682;28;20053;-74
2023/09/02 06:50:29;;;;;;;32.17;26.45;;;14.20;99.90;;;;;;5006612;28;20049;-73
2023/09/02 06:52:54;;;;;;;34.65;27.45;;;14.20;99.90;;;;;;5031592;28;20052;-73
2023/09/02 06:55:20;;;;;;;39.33;29.40;;;14.30;99.90;;;;;;5022406;28;20483;-73
2023/09/02 06:57:46;;;;;;;37.95;27.83;;;14.30;99.90;;;;;;4989600;28;20145;-73
2023/09/02 07:00:12;;;;;;;35.03;27.83;;;14.30;99.90;;;;;;4996213;28;20066;-74
2023/09/02 07:02:39;;;;;;;35.40;27.63;;;14.40;99.90;;;;;;5020553;28;20029;-74
2023/09/02 07:05:05;;;;;;;37.95;28.20;;;14.30;99.90;;;;;;4985035;28;20095;-73
2023/09/02 07:07:30;;;;;;;34.88;28.50;;;14.30;99.90;;;;;;5021681;28;20049;-73
2023/09/02 07:09:57;;;;;;;35.65;27.50;;;14.40;99.90;;;;;;4995262;28;20034;-73
2023/09/02 07:12:24;;;;;;;38.60;30.27;;;14.40;99.90;;;;;;5008424;28;20095;-74
2023/09/02 07:14:50;;;;;;;40.78;29.40;;;14.40;99.90;;;;;;5002285;28;20096;-74
2023/09/02 07:17:16;;;;;;;41.03;30.80;;;14.40;99.90;;;;;;5001302;28;20059;-73
2023/09/02 07:19:41;;;;;;;42.17;32.25;;;14.40;99.90;;;;;;5026673;28;20112;-73
2023/09/02 07:22:07;;;;;;;45.38;32.28;;;14.50;99.90;;;;;;4988360;28;20480;-73
2023/09/02 07:24:33;;;;;;;35.88;29.77;;;14.50;99.90;;;;;;5003127;28;20095;-74
2023/09/02 07:26:59;;;;;;;44.20;31.95;;;14.50;99.90;;;;;;4997363;28;20041;-73
2023/09/02 07:29:25;;;;;;;38.90;31.75;;;14.50;99.90;;;;;;4989319;28;20046;-73
2023/09/02 07:31:51;;;;;;;42.72;31.95;;;14.50;99.90;;;;;;5025969;28;20034;-73
2023/09/02 07:34:16;;;;;;;37.90;30.40;;;14.50;99.90;;;;;;4968963;28;20052;-73
2023/09/02 07:36:42;;;;;;;37.35;29.13;;;14.60;99.90;;;;;;4993343;28;20034;-73
2023/09/02 07:39:08;;;;;;;35.83;28.70;;;14.60;99.90;;;;;;4986986;28;20228;-72
2023/09/02 07:41:34;;;;;;;40.50;32.53;;;14.60;99.90;;;;;;4980885;28;20130;-72
2023/09/02 07:44:00;;;;;;;40.17;31.63;;;14.60;99.90;;;;;;4986826;28;20038;-72
2023/09/02 07:46:25;;;;;;;38.58;30.67;;;14.60;99.90;;;;;;4987151;28;20038;-72
2023/09/02 07:48:51;;;;;;;38.50;30.05;;;14.70;99.90;;;;;;5004766;28;20391;-73
2023/09/02 07:51:18;;;;;;;39.05;30.13;;;14.70;99.90;;;;;;5002249;28;20423;-72
2023/09/02 07:53:44;;;;;;;38.15;29.85;;;14.70;99.90;;;;;;4997348;28;20054;-72
2023/09/02 07:56:10;;;;;;;39.20;29.30;;;14.80;99.90;;;;;;4980417;28;20073;-72
2023/09/02 07:58:36;;;;;;;38.63;30.80;;;14.90;99.90;;;;;;5043799;28;20133;-73
2023/09/02 08:01:02;;;;;;;38.00;30.70;;;14.90;99.90;;;;;;4990082;28;20065;-72
2023/09/02 08:03:28;;;;;;;39.15;30.85;;;15.00;99.90;;;;;;4998505;28;20184;-73
2023/09/02 08:05:54;;;;;;;42.53;30.40;;;15.00;99.90;;;;;;4987709;28;20119;-73
2023/09/02 08:08:20;;;;;;;40.85;32.67;;;15.10;99.90;;;;;;5027757;28;20049;-73
2023/09/02 08:10:46;;;;;;;41.20;30.83;;;15.10;99.90;;;;;;4989457;28;20499;-72
2023/09/02 08:13:12;;;;;;;38.30;31.23;;;15.20;99.90;;;;;;4989009;28;20045;-74
2023/09/02 08:15:38;;;;;;;37.53;30.40;;;15.20;99.90;;;;;;4989116;28;20062;-73
2023/09/02 08:18:04;;;;;;;40.78;29.90;;;15.30;99.90;;;;;;5019906;28;20088;-73
2023/09/02 08:20:30;;;;;;;40.78;30.48;;;15.30;99.90;;;;;;5000992;28;20097;-73
2023/09/02 08:22:56;;;;;;;38.60;30.75;;;15.30;99.90;;;;;;5010374;28;20034;-74
2023/09/02 08:25:22;;;;;;;41.30;32.13;;;15.40;99.90;;;;;;4989690;28;20041;-73
2023/09/02 08:27:48;;;;;;;44.40;32.38;;;15.40;99.90;;;;;;4990786;28;20047;-73
2023/09/02 08:30:15;;;;;;;41.50;33.03;;;15.40;99.90;;;;;;5011897;28;20030;-73
2023/09/02 08:32:41;;;;;;;44.75;32.90;;;15.50;99.90;;;;;;5002796;28;20126;-73
2023/09/02 08:35:08;;;;;;;43.05;32.85;;;15.50;99.90;;;;;;5000842;28;20046;-73
2023/09/02 08:37:34;;;;;;;41.15;33.13;;;15.60;99.90;;;;;;5001302;28;20048;-73
2023/09/02 08:40:01;;;;;;;43.38;32.50;;;15.60;99.90;;;;;;5023962;28;20044;-73
2023/09/02 08:42:28;;;;;;;41.10;32.15;;;15.70;99.90;;;;;;4991580;28;20069;-73
2023/09/02 08:44:56;;;;;;;37.00;30.08;;;15.70;99.90;;;;;;5007688;28;20042;-73
2023/09/02 08:47:24;;;;;;;40.05;30.33;;;15.80;99.90;;;;;;5033866;28;20175;-73
2023/09/02 08:49:51;;;;;;;39.53;29.40;;;15.90;99.90;;;;;;5002122;28;20165;-73
2023/09/02 08:52:18;;;;;;;37.00;29.65;;;15.90;99.90;;;;;;5006458;28;20049;-73
2023/09/02 08:54:44;;;;;;;39.78;32.30;;;16.00;99.90;;;;;;5008773;28;20066;-73
2023/09/02 08:57:11;;;;;;;45.63;34.00;;;16.00;99.90;;;;;;5029181;28;20495;-74
2023/09/02 08:59:38;;;;;;;34.75;29.08;;;16.10;99.90;;;;;;5023176;28;20049;-73
2023/09/02 09:02:04;;;;;;;40.25;30.45;;;16.10;99.90;;;;;;4990092;28;20064;-74
2023/09/02 09:04:33;;;;;;;40.13;30.35;;;16.20;99.90;;;;;;5014526;28;20038;-74
2023/09/02 09:07:04;;;;;;;36.03;28.42;;;16.20;99.90;;;;;;5040139;28;20038;-73
2023/09/02 09:09:35;;;;;;;35.20;28.98;;;16.30;99.90;;;;;;5044296;28;20056;-73
2023/09/02 09:12:03;;;;;;;33.88;27.88;;;16.30;99.90;;;;;;5003450;28;20069;-74
2023/09/02 09:14:36;;;;;;;34.70;28.52;;;16.40;99.90;;;;;;5000276;28;20042;-73
2023/09/02 09:17:03;;;;;;;35.95;29.00;;;16.40;99.90;;;;;;5004423;28;20126;-74
2023/09/02 09:19:30;;;;;;;36.38;27.90;;;16.40;99.90;;;;;;5008441;28;20038;-73
2023/09/02 09:21:57;;;;;;;35.78;30.83;;;16.50;99.90;;;;;;5029987;28;20116;-75
2023/09/02 09:24:23;;;;;;;34.90;29.50;;;16.50;99.90;;;;;;5004404;28;20069;-73
2023/09/02 09:26:50;;;;;;;34.25;27.40;;;16.50;99.90;;;;;;5007202;28;20046;-74
2023/09/02 09:29:22;;;;;;;34.97;27.90;;;16.60;99.90;;;;;;4993044;28;20061;-73
2023/09/02 09:31:51;;;;;;;;;;;16.60;99.90;;;;;;5036887;28;20034;-74
2023/09/02 09:34:17;;;;;;;34.50;27.05;;;16.60;99.90;;;;;;5051477;28;19917;-74
2023/09/02 09:36:44;;;;;;;35.03;27.95;;;16.70;99.90;;;;;;4990026;28;20161;-74
2023/09/02 09:39:09;;;;;;;33.45;26.08;;;16.70;99.90;;;;;;5003901;28;20046;-74
2023/09/02 09:41:43;;;;;;;35.95;28.50;;;16.70;99.90;;;;;;5022204;28;20407;-74
2023/09/02 09:44:15;;;;;;;34.85;26.88;;;16.80;99.90;;;;;;5007638;28;20034;-74
2023/09/02 09:46:43;;;;;;;34.80;26.63;;;16.90;99.90;;;;;;4994028;28;20037;-75
2023/09/02 09:49:26;;;;;;;33.72;26.38;;;17.00;99.90;;;;;;5037798;28;20112;-74
2023/09/02 09:52:10;;;;;;;31.38;26.33;;;17.10;99.90;;;;;;4980061;28;20120;-74
2023/09/02 09:54:47;;;;;;;27.35;22.02;;;17.30;99.90;;;;;;4992653;28;20042;-76
2023/09/02 09:57:29;;;;;;;31.00;24.15;;;17.40;99.90;;;;;;5004522;28;20034;-76
2023/09/02 09:59:55;;;;;;;29.57;22.50;;;17.50;99.90;;;;;;5020938;28;20117;-75
2023/09/02 10:02:22;;;;;;;25.88;22.00;;;17.60;99.90;;;;;;5007450;28;20483;-74
2023/09/02 10:04:59;;;;;;;27.50;21.77;;;17.60;99.90;;;;;;5023670;28;20257;-74
2023/09/02 10:07:27;;;;;;;26.35;20.48;;;17.60;99.90;;;;;;4991254;28;20045;-74
2023/09/02 10:09:55;;;;;;;24.92;19.05;;;17.70;99.90;;;;;;5007454;28;20044;-75
2023/09/02 10:12:21;;;;;;;24.45;19.48;;;17.70;99.90;;;;;;5021346;28;20381;-75
2023/09/02 10:14:48;;;;;;;22.25;19.85;;;17.70;99.90;;;;;;4986571;28;20049;-75
2023/09/02 10:17:15;;;;;;;26.15;20.13;;;17.80;99.90;;;;;;4993969;28;20434;-74
2023/09/02 10:19:42;;;;;;;23.25;18.58;;;17.80;99.90;;;;;;5015797;28;20042;-74
2023/09/02 10:22:08;;;;;;;24.85;18.67;;;17.90;99.90;;;;;;5006940;28;20029;-74
2023/09/02 10:24:45;;;;;;;24.08;18.20;;;17.90;99.90;;;;;;5002691;28;20124;-75
2023/09/02 10:27:22;;;;;;;28.70;18.33;;;17.90;99.90;;;;;;4989156;28;20077;-74
2023/09/02 10:29:55;;;;;;;24.48;19.38;;;18.00;99.90;;;;;;5035173;28;20331;-74
2023/09/02 10:32:28;;;;;;;26.25;18.95;;;18.00;99.90;;;;;;5000322;28;20068;-74
2023/09/02 10:35:13;;;;;;;25.60;19.52;;;18.00;99.90;;;;;;5004399;28;20038;-75
2023/09/02 10:37:51;;;;;;;21.23;18.33;;;18.10;99.90;;;;;;5024159;28;20404;-74
2023/09/02 10:40:27;;;;;;;23.05;18.15;;;18.20;99.90;;;;;;4983626;28;20100;-75
2023/09/02 10:42:54;;;;;;;27.88;17.65;;;18.30;99.90;;;;;;4977753;28;20037;-75
2023/09/02 10:45:21;;;;;;;23.23;18.45;;;18.40;99.90;;;;;;5004136;28;20376;-75
2023/09/02 10:47:48;;;;;;;29.35;18.58;;;18.40;99.90;;;;;;4999328;28;20046;-76
2023/09/02 10:50:19;;;;;;;25.08;19.55;;;18.50;99.90;;;;;;5005823;28;20087;-75
2023/09/02 10:52:45;;;;;;;24.55;18.88;;;18.60;99.90;;;;;;5032241;28;20495;-75
2023/09/02 10:55:11;;;;;;;23.48;17.90;;;18.60;99.90;;;;;;4985964;28;20052;-75
2023/09/02 10:57:54;;;;;;;24.88;18.60;;;18.60;99.90;;;;;;4982995;28;20038;-75
2023/09/02 11:00:21;;;;;;;25.90;20.17;;;18.70;99.90;;;;;;4996673;28;20147;-75
2023/09/02 11:02:57;;;;;;;26.10;19.40;;;18.70;99.90;;;;;;5010416;28;20040;-75
2023/09/02 11:05:27;;;;;;;23.60;19.85;;;18.80;99.90;;;;;;5002043;28;20042;-73
2023/09/02 11:07:54;;;;;;;24.05;20.25;;;18.90;99.90;;;;;;5000134;28;20507;-72
2023/09/02 11:10:21;;;;;;;24.95;18.52;;;19.10;99.90;;;;;;5000297;28;20101;-72
2023/09/02 11:12:58;;;;;;;24.00;16.52;;;19.40;99.90;;;;;;5001021;28;20173;-74
2023/09/02 11:15:24;;;;;;;23.48;17.23;;;19.60;99.90;;;;;;5006432;28;20045;-74
2023/09/02 11:17:50;;;;;;;20.65;15.98;;;19.80;99.90;;;;;;4982951;28;20053;-75
2023/09/02 11:20:19;;;;;;;22.67;17.50;;;20.00;99.90;;;;;;5034235;28;20700;-75
2023/09/02 11:22:52;;;;;;;20.27;16.05;;;20.20;99.90;;;;;;5014085;28;20189;-76
2023/09/02 11:25:26;;;;;;;23.02;15.63;;;20.30;99.90;;;;;;5022843;28;20049;-75
2023/09/02 11:27:53;;;;;;;21.58;15.10;;;20.50;99.90;;;;;;4979007;28;20081;-76
2023/09/02 11:30:19;;;;;;;19.73;14.77;;;20.70;99.90;;;;;;5001687;28;20518;-74
2023/09/02 11:32:45;;;;;;;18.63;13.63;;;20.70;99.90;;;;;;5005739;28;20056;-75
2023/09/02 11:35:14;;;;;;;18.45;13.32;;;20.70;99.90;;;;;;5031004;28;20053;-74
2023/09/02 11:37:40;;;;;;;15.40;12.65;;;20.60;99.90;;;;;;4998137;28;20038;-75
2023/09/02 11:40:20;;;;;;;19.20;14.40;;;20.60;99.90;;;;;;4988792;28;20045;-75
2023/09/02 11:42:59;;;;;;;17.38;14.73;;;20.50;99.90;;;;;;4987820;28;20041;-74
2023/09/02 11:45:35;;;;;;;21.52;14.60;;;20.50;99.90;;;;;;5005569;28;20679;-73
2023/09/02 11:48:06;;;;;;;19.48;14.68;;;20.40;99.90;;;;;;4993705;28;20031;-73
2023/09/02 11:50:32;;;;;;;18.83;13.93;;;20.40;99.90;;;;;;4988488;28;20074;-75
2023/09/02 11:52:58;;;;;;;20.42;14.77;;;20.40;99.90;;;;;;5006680;28;20065;-75
2023/09/02 11:55:25;;;;;;;23.17;15.70;;;20.40;99.90;;;;;;5002098;28;20097;-75
2023/09/02 11:57:51;;;;;;;21.30;15.40;;;20.40;99.90;;;;;;5001397;28;20049;-74
2023/09/02 12:00:22;;;;;;;18.23;14.73;;;20.50;99.90;;;;;;5003125;28;20104;-75
2023/09/02 12:02:49;;;;;;;18.95;14.68;;;20.50;99.90;;;;;;5003327;28;20088;-75
2023/09/02 12:05:16;;;;;;;26.17;16.15;;;20.60;99.90;;;;;;5003916;28;20463;-76
2023/09/02 12:07:43;;;;;;;18.27;13.95;;;20.70;99.90;;;;;;4994552;28;20396;-75
2023/09/02 12:10:14;;;;;;;17.70;14.23;;;20.70;99.90;;;;;;5041172;28;20561;-76
2023/09/02 12:12:42;;;;;;;16.08;14.38;;;20.70;99.90;;;;;;5007198;28;20049;-76
2023/09/02 12:15:15;;;;;;;20.42;15.38;;;20.80;99.90;;;;;;5031124;28;20042;-76
2023/09/02 12:17:43;;;;;;;17.52;14.43;;;20.80;99.90;;;;;;4997304;28;20058;-74
2023/09/02 12:20:13;;;;;;;18.92;12.27;;;21.00;99.90;;;;;;4982294;28;20042;-73
2023/09/02 12:22:41;;;;;;;17.63;13.52;;;21.20;99.90;;;;;;4994960;28;20126;-74
2023/09/02 12:25:17;;;;;;;14.88;12.75;;;21.40;99.90;;;;;;5030737;28;20034;-74
2023/09/02 12:27:43;;;;;;;16.08;12.55;;;21.50;99.90;;;;;;5034193;28;20034;-74
2023/09/02 12:30:10;;;;;;;15.10;10.30;;;21.60;99.90;;;;;;5029467;28;20038;-74